Historique des mesures à Cassis (13260), France
Quotidien Résumé Janvier 17, 2017 Unités:  US    Métrique   Métrique/US
« Précédent (Jour)
Suivant (Jour) »
Quotidien Hebdomadaire Mensuel Annuel Période au choix
  Maximum: Minimum: Moyenne:
Température: 32 °F 34.9 °F 38.3 °F
Point de rosée: 32 °F 10.4 °F 15.6 °F
Humidité: Humidity % 31 % 36 %
Vitesse du vent: WindSpeedKMH mph 0.0 mph 5.2 mph
Rafales: WindSpeedGustKMH mph - -
Vent:- - South
Pression: 0 in 29.8 in -
Précipitations: 0 in    
Historical Graphs
 
 
Mesures pour : Janvier 17, 2017
Heure Temperature Point de rosée Pression Vent Vitesse du vent Rafales Humidité Pluie (par heure) Conditions
32 °F 32 °F 0 in Calm     Humidity % 0 in SoftwareType W/m2
00:11 37 °F 13.6 °F 29.8 in North 7.6 mph 7.9 mph 38 % 0 in open2300-1.11 W/m2
01:10 36.7 °F 13.3 °F 29.8 in NNW 6.8 mph 12.6 mph 38 % 0 in open2300-1.11 W/m2
02:11 36.3 °F 12.9 °F 29.8 in North 7.6 mph 7.6 mph 38 % 0 in open2300-1.11 W/m2
03:10 35.8 °F 12.6 °F 29.8 in NW 9.7 mph 9.7 mph 38 % 0 in open2300-1.11 W/m2
04:11 35.2 °F 12.7 °F 29.8 in NW 11.6 mph 13.7 mph 39 % 0 in open2300-1.11 W/m2
05:10 35.2 °F 12 °F 29.8 in NNW 3.2 mph 13.4 mph 38 % 0 in open2300-1.11 W/m2
06:11 35.2 °F 11.5 °F 29.8 in North 8.7 mph 10.1 mph 37 % 0 in open2300-1.11 W/m2
07:10 34.9 °F 10.4 °F 29.8 in NW 3.5 mph 5.0 mph 36 % 0 in open2300-1.11 W/m2
08:11 35.1 °F 10.6 °F 29.8 in NW 6.1 mph 6.8 mph 36 % 0 in open2300-1.11 W/m2
09:10 36.9 °F 10.9 °F 29.8 in NE 5.8 mph 20.9 mph 34 % 0 in open2300-1.11 W/m2
10:11 38.1 °F 11.5 °F 29.8 in NNE 7.9 mph 12.2 mph 33 % 0 in open2300-1.11 W/m2
11:10 40.1 °F 13.1 °F 29.9 in Calm     33 % 0 in open2300-1.11 W/m2
12:11 42.4 °F 13.8 °F 29.9 in Calm   2.6 mph 31 % 0 in open2300-1.11 W/m2
13:10 43.3 °F 15.3 °F 29.9 in Calm   2.9 mph 32 % 0 in open2300-1.11 W/m2
14:11 44.2 °F 16.2 °F 29.9 in West 6.8 mph 12.6 mph 32 % 0 in open2300-1.11 W/m2
15:10 44.1 °F 17.2 °F 29.9 in NNW 18.7 mph 18.7 mph 34 % 0 in open2300-1.11 W/m2
16:11 43.2 °F 19 °F 29.9 in NNE 2.6 mph 19.8 mph 38 % 0 in open2300-1.11 W/m2
17:10 41.2 °F 18 °F 29.9 in North 4.7 mph 10.1 mph 39 % 0 in open2300-1.11 W/m2
18:11 39.9 °F 18 °F 29.9 in Calm   7.2 mph 41 % 0 in open2300-1.11 W/m2
19:10 38.8 °F 18.1 °F 29.9 in Calm     43 % 0 in open2300-1.11 W/m2
20:11 38.3 °F 18.7 °F 29.9 in NNE 5.8 mph 7.2 mph 45 % 0 in open2300-1.11 W/m2
21:10 38.1 °F 19 °F 29.9 in Calm     46 % 0 in open2300-1.11 W/m2
22:11 37.8 °F 19.2 °F 29.9 in NW 5.8 mph 5.8 mph 47 % 0 in open2300-1.11 W/m2
23:10 39.4 °F 19 °F 29.9 in NW 8.2 mph 8.2 mph 44 % 0 in open2300-1.11 W/m2
Observations météo à CASSIS
WU-History script by Weather Underground - 1 mb